Time;durP1;ratioP1;P1;durP2;ratioP2;P2;SDS_P1;SDS_P2;PMS_P1;PMS_P2;Temp;Humidity;BMP_temperature;BMP_pressure;BME280_temperature;BME280_humidity;BME280_pressure;Samples;Min_cycle;Max_cycle;Signal;HPM_P1;HPM_P2
2022/10/27 00:00:48;;;;;;;14.60;11.20;;;12.80;99.90;;;;;;6115847;23;20438;-79
2022/10/27 00:03:18;;;;;;;12.77;10.23;;;12.80;99.90;;;;;;6121555;23;20558;-79
2022/10/27 00:05:47;;;;;;;14.97;10.63;;;12.80;99.90;;;;;;6106018;23;20296;-79
2022/10/27 00:08:15;;;;;;;13.10;10.20;;;12.70;99.90;;;;;;6095511;23;20538;-79
2022/10/27 00:10:43;;;;;;;15.20;10.73;;;12.70;99.90;;;;;;6104664;23;20486;-79
2022/10/27 00:13:12;;;;;;;14.20;11.50;;;12.70;99.90;;;;;;6108454;23;20487;-79
2022/10/27 00:15:39;;;;;;;15.55;12.50;;;12.70;99.90;;;;;;6116532;23;20493;-79
2022/10/27 00:18:11;;;;;;;13.60;12.07;;;12.70;99.90;;;;;;6117702;23;20299;-79
2022/10/27 00:20:39;;;;;;;13.40;10.40;;;12.70;99.90;;;;;;6093573;23;20280;-79
2022/10/27 00:23:06;;;;;;;12.80;10.93;;;12.70;99.90;;;;;;6135477;23;20277;-79
2022/10/27 00:25:33;;;;;;;12.38;11.10;;;12.70;99.90;;;;;;6090678;23;20212;-79
2022/10/27 00:28:00;;;;;;;13.80;10.60;;;12.60;99.90;;;;;;6106820;23;20196;-79
2022/10/27 00:30:27;;;;;;;12.85;11.00;;;12.60;99.90;;;;;;6104115;23;20222;-79
2022/10/27 00:32:55;;;;;;;12.32;10.30;;;12.60;99.90;;;;;;6117678;23;20199;-79
2022/10/27 00:35:22;;;;;;;13.32;10.70;;;12.60;99.90;;;;;;6117131;23;20192;-79
2022/10/27 00:37:50;;;;;;;11.77;10.43;;;12.50;99.90;;;;;;6119092;23;20253;-79
2022/10/27 00:40:17;;;;;;;12.35;11.10;;;12.50;99.90;;;;;;6114791;23;20528;-79
2022/10/27 00:42:44;;;;;;;14.13;10.50;;;12.50;99.90;;;;;;6116474;23;20214;-79
2022/10/27 00:45:11;;;;;;;11.00;9.90;;;12.50;99.90;;;;;;6113609;23;20445;-79
2022/10/27 00:47:40;;;;;;;10.18;9.13;;;12.50;99.90;;;;;;6112181;23;20215;-79
2022/10/27 00:50:11;;;;;;;13.77;9.30;;;12.60;99.90;;;;;;6117691;23;20202;-79
2022/10/27 00:52:43;;;;;;;14.07;10.60;;;12.50;99.90;;;;;;6108080;23;20512;-79
2022/10/27 00:55:15;;;;;;;10.20;9.30;;;12.50;99.90;;;;;;6115143;23;20241;-79
2022/10/27 00:57:45;;;;;;;11.27;9.75;;;12.40;99.90;;;;;;6095806;23;20201;-79
2022/10/27 01:00:13;;;;;;;13.13;9.80;;;12.40;99.90;;;;;;6063208;23;20197;-79
2022/10/27 01:02:40;;;;;;;12.35;9.50;;;12.40;99.90;;;;;;6118608;23;20557;-78
2022/10/27 01:05:13;;;;;;;13.93;11.32;;;12.40;99.90;;;;;;6111322;23;20227;-78
2022/10/27 01:07:42;;;;;;;11.48;10.45;;;12.30;99.90;;;;;;6112228;23;20314;-79
2022/10/27 01:10:11;;;;;;;11.40;10.30;;;12.30;99.90;;;;;;6103136;23;20612;-78
2022/10/27 01:12:39;;;;;;;10.70;9.60;;;12.30;99.90;;;;;;6114464;23;20191;-78
2022/10/27 01:15:08;;;;;;;12.60;10.82;;;12.30;99.90;;;;;;6107718;23;20462;-78
2022/10/27 01:17:44;;;;;;;13.43;10.65;;;12.30;99.90;;;;;;6085461;23;20180;-78
2022/10/27 01:20:41;;;;;;;12.73;10.48;;;12.30;99.90;;;;;;6080119;23;20218;-78
2022/10/27 01:23:17;;;;;;;15.98;10.68;;;12.30;99.90;;;;;;6114566;23;20221;-78
2022/10/27 01:26:15;;;;;;;12.52;11.32;;;12.30;99.90;;;;;;6106047;23;20344;-78
2022/10/27 01:29:12;;;;;;;12.88;10.57;;;12.20;99.90;;;;;;6112525;23;20218;-78
2022/10/27 01:31:44;;;;;;;11.57;10.38;;;12.20;99.90;;;;;;6074276;23;20226;-78
2022/10/27 01:34:18;;;;;;;15.05;10.30;;;12.10;99.90;;;;;;6112294;23;20269;-78
2022/10/27 01:36:49;;;;;;;14.02;10.85;;;12.10;99.90;;;;;;6093294;23;20222;-78
2022/10/27 01:39:19;;;;;;;13.15;10.55;;;12.00;99.90;;;;;;6113338;23;20554;-78
2022/10/27 01:41:50;;;;;;;13.82;11.35;;;12.00;99.90;;;;;;6100922;23;20235;-78
2022/10/27 01:44:22;;;;;;;15.02;10.98;;;12.00;99.90;;;;;;6103753;23;20187;-78
2022/10/27 01:46:53;;;;;;;12.45;11.13;;;12.00;99.90;;;;;;6088010;23;20337;-78
2022/10/27 01:49:20;;;;;;;13.98;12.13;;;12.00;99.90;;;;;;6118262;23;20274;-78
2022/10/27 01:51:48;;;;;;;12.20;11.00;;;12.00;99.90;;;;;;6117256;23;20195;-78
2022/10/27 01:54:16;;;;;;;13.00;11.60;;;12.00;99.90;;;;;;6082148;23;20606;-78
2022/10/27 01:57:02;;;;;;;12.90;11.48;;;12.00;99.90;;;;;;6118386;23;20260;-78
2022/10/27 01:59:42;;;;;;;15.25;11.07;;;12.00;99.90;;;;;;6092380;23;20261;-78
2022/10/27 02:02:21;;;;;;;12.35;11.02;;;11.90;99.90;;;;;;6101013;23;20207;-78
2022/10/27 02:04:59;;;;;;;13.45;10.20;;;11.90;99.90;;;;;;6106025;23;20741;-79
2022/10/27 02:07:33;;;;;;;10.90;9.80;;;11.70;99.90;;;;;;6108785;23;20214;-78
2022/10/27 02:10:07;;;;;;;11.57;9.38;;;11.70;99.90;;;;;;6087076;23;20190;-78
2022/10/27 02:12:36;;;;;;;11.77;10.27;;;11.60;99.90;;;;;;6102763;23;20187;-78
2022/10/27 02:15:07;;;;;;;11.65;10.05;;;11.60;99.90;;;;;;6105097;23;20630;-78
2022/10/27 02:17:39;;;;;;;11.77;9.57;;;11.50;99.90;;;;;;6105508;23;20241;-78
2022/10/27 02:20:13;;;;;;;11.98;10.27;;;11.50;99.90;;;;;;6106874;23;20270;-78
2022/10/27 02:22:43;;;;;;;13.55;11.02;;;11.40;99.90;;;;;;6119018;23;20683;-78
2022/10/27 02:25:10;;;;;;;14.35;12.20;;;11.40;99.90;;;;;;6089904;23;20188;-78
2022/10/27 02:27:42;;;;;;;13.52;11.98;;;11.50;99.90;;;;;;6102815;23;20211;-78
2022/10/27 02:30:10;;;;;;;15.63;13.82;;;11.50;99.90;;;;;;6115270;23;20195;-78
2022/10/27 02:32:40;;;;;;;14.88;11.60;;;11.40;99.90;;;;;;6091172;23;20196;-78
2022/10/27 02:35:09;;;;;;;13.00;11.80;;;11.50;99.90;;;;;;6097025;23;20237;-78
2022/10/27 02:37:40;;;;;;;14.75;13.23;;;11.40;99.90;;;;;;6079635;23;20198;-78
2022/10/27 02:40:09;;;;;;;14.45;12.73;;;11.40;99.90;;;;;;6126998;23;20806;-78
2022/10/27 02:42:36;;;;;;;13.32;11.93;;;11.40;99.90;;;;;;6117395;23;20192;-78
2022/10/27 02:45:04;;;;;;;15.40;12.55;;;11.30;99.90;;;;;;6101082;23;20280;-78
2022/10/27 02:47:31;;;;;;;15.80;12.98;;;11.30;99.90;;;;;;6112400;23;20219;-78
2022/10/27 02:50:00;;;;;;;14.60;12.95;;;11.20;99.90;;;;;;6115237;23;20290;-78
2022/10/27 02:52:27;;;;;;;14.35;12.98;;;11.20;99.90;;;;;;6119613;23;20219;-78
2022/10/27 02:54:54;;;;;;;15.45;13.68;;;11.20;99.90;;;;;;6118420;23;20201;-78
2022/10/27 02:57:21;;;;;;;13.70;11.93;;;11.20;99.90;;;;;;6097244;23;20226;-78
2022/10/27 02:59:48;;;;;;;13.85;12.35;;;11.40;99.90;;;;;;6104345;23;20208;-78
2022/10/27 03:02:15;;;;;;;16.15;13.60;;;11.30;99.90;;;;;;6111955;23;20219;-78
2022/10/27 03:04:42;;;;;;;13.45;12.05;;;11.30;99.90;;;;;;6117744;23;20278;-78
2022/10/27 03:07:11;;;;;;;14.68;11.65;;;11.30;99.90;;;;;;6115444;23;20684;-78
2022/10/27 03:09:38;;;;;;;15.18;13.45;;;11.30;99.90;;;;;;6118047;23;20228;-78
2022/10/27 03:12:06;;;;;;;19.48;13.00;;;11.30;99.90;;;;;;6085053;23;20282;-78
2022/10/27 03:14:32;;;;;;;16.30;13.20;;;11.40;99.90;;;;;;6117996;23;20271;-78
2022/10/27 03:17:00;;;;;;;15.48;13.77;;;11.40;99.90;;;;;;6118433;23;20245;-78
2022/10/27 03:19:28;;;;;;;14.98;13.45;;;11.40;99.90;;;;;;6118923;23;20195;-78
2022/10/27 03:21:55;;;;;;;16.75;14.80;;;11.40;99.90;;;;;;6115662;23;20197;-78
2022/10/27 03:24:24;;;;;;;15.63;14.15;;;11.50;99.90;;;;;;6082960;23;20195;-77
2022/10/27 03:26:51;;;;;;;15.60;13.23;;;11.50;99.90;;;;;;6092033;23;20240;-77
2022/10/27 03:29:18;;;;;;;15.27;13.27;;;11.50;99.90;;;;;;6104562;23;20195;-77
2022/10/27 03:31:45;;;;;;;16.33;12.80;;;11.50;99.90;;;;;;6071066;23;20234;-78
2022/10/27 03:34:12;;;;;;;13.68;12.40;;;11.50;99.90;;;;;;6117166;23;20215;-77
2022/10/27 03:36:40;;;;;;;16.65;14.05;;;11.50;99.90;;;;;;6117901;23;20274;-77
2022/10/27 03:39:07;;;;;;;16.58;14.00;;;11.50;99.90;;;;;;6127078;23;20226;-77
2022/10/27 03:41:35;;;;;;;17.30;12.10;;;11.50;99.90;;;;;;6125354;23;20521;-77
2022/10/27 03:44:03;;;;;;;15.90;12.90;;;11.50;99.90;;;;;;6111994;23;20323;-78
2022/10/27 03:46:30;;;;;;;16.05;12.52;;;11.40;99.90;;;;;;6112123;23;20302;-78
2022/10/27 03:48:57;;;;;;;15.50;11.90;;;11.40;99.90;;;;;;6093851;23;20230;-78
2022/10/27 03:51:24;;;;;;;13.63;12.25;;;11.40;99.90;;;;;;6092822;23;20257;-78
2022/10/27 03:53:51;;;;;;;14.50;13.00;;;11.40;99.90;;;;;;6116355;23;20187;-78
2022/10/27 03:56:19;;;;;;;14.30;11.73;;;11.40;99.90;;;;;;6123051;23;20274;-78
2022/10/27 03:58:48;;;;;;;14.75;12.50;;;11.30;99.90;;;;;;6109561;23;20214;-78
2022/10/27 04:01:15;;;;;;;15.48;13.82;;;11.30;99.90;;;;;;6130301;23;20223;-78
2022/10/27 04:03:42;;;;;;;13.73;12.43;;;11.30;99.90;;;;;;6122605;23;20226;-78
2022/10/27 04:06:09;;;;;;;17.08;12.35;;;11.20;99.90;;;;;;6111825;23;20270;-78
2022/10/27 04:08:37;;;;;;;18.80;14.60;;;11.20;99.90;;;;;;6091659;23;20191;-78
2022/10/27 04:11:04;;;;;;;15.30;12.55;;;11.20;99.90;;;;;;6122257;23;20196;-78
2022/10/27 04:13:31;;;;;;;15.20;12.75;;;11.10;99.90;;;;;;6121142;23;20218;-77
2022/10/27 04:16:02;;;;;;;16.15;14.02;;;11.10;99.90;;;;;;6122234;23;20232;-77
2022/10/27 04:18:29;;;;;;;16.85;14.82;;;11.10;99.90;;;;;;6099851;23;20267;-77
2022/10/27 04:21:00;;;;;;;17.27;13.65;;;11.10;99.90;;;;;;6078842;23;20201;-77
2022/10/27 04:23:27;;;;;;;15.50;13.88;;;11.10;99.90;;;;;;6086945;23;20301;-77
2022/10/27 04:25:54;;;;;;;15.57;13.95;;;11.10;99.90;;;;;;6120815;23;20277;-77
2022/10/27 04:28:22;;;;;;;17.85;14.68;;;11.10;99.90;;;;;;6094770;23;20220;-77
2022/10/27 04:30:49;;;;;;;17.02;13.35;;;11.10;99.90;;;;;;6096673;23;20249;-77
2022/10/27 04:33:18;;;;;;;21.27;16.42;;;11.10;99.90;;;;;;6114982;23;20278;-78
2022/10/27 04:35:45;;;;;;;16.92;13.70;;;11.10;99.90;;;;;;6109608;23;20191;-80
2022/10/27 04:38:12;;;;;;;14.70;13.25;;;11.10;99.90;;;;;;6100873;23;20211;-79
2022/10/27 04:40:41;;;;;;;15.32;13.65;;;11.10;99.90;;;;;;6110526;23;20189;-81
2022/10/27 04:43:09;;;;;;;14.05;12.43;;;11.10;99.90;;;;;;6109158;23;20206;-81
2022/10/27 04:45:37;;;;;;;14.85;13.35;;;11.10;99.90;;;;;;6135474;23;20270;-80
2022/10/27 04:48:05;;;;;;;15.02;13.18;;;11.10;99.90;;;;;;6119712;23;20269;-77
2022/10/27 04:50:52;;;;;;;14.43;12.95;;;11.10;99.90;;;;;;6096766;23;20314;-80
2022/10/27 04:53:20;;;;;;;15.13;13.30;;;11.10;99.90;;;;;;6099965;23;20195;-78
2022/10/27 04:55:47;;;;;;;15.63;13.45;;;11.00;99.90;;;;;;6128590;23;20253;-77
2022/10/27 04:58:14;;;;;;;14.10;12.68;;;11.00;99.90;;;;;;6090762;23;20274;-78
2022/10/27 05:00:41;;;;;;;14.30;12.90;;;11.00;99.90;;;;;;6086313;23;20298;-78
2022/10/27 05:03:09;;;;;;;14.75;13.25;;;11.00;99.90;;;;;;6110946;23;20188;-77
2022/10/27 05:05:36;;;;;;;14.45;12.38;;;11.00;99.90;;;;;;6113477;23;20198;-78
2022/10/27 05:08:05;;;;;;;15.65;14.05;;;11.00;99.90;;;;;;6120547;23;20664;-77
2022/10/27 05:10:34;;;;;;;15.40;12.88;;;10.90;99.90;;;;;;6082688;23;20192;-78
2022/10/27 05:13:01;;;;;;;15.05;13.35;;;10.90;99.90;;;;;;6081497;23;20275;-77
2022/10/27 05:15:28;;;;;;;18.88;14.40;;;10.80;99.90;;;;;;6119208;23;20673;-77
2022/10/27 05:17:56;;;;;;;13.23;11.93;;;10.80;99.90;;;;;;6127539;23;20586;-77
2022/10/27 05:20:23;;;;;;;15.57;13.55;;;10.80;99.90;;;;;;6086463;23;20192;-77
2022/10/27 05:22:51;;;;;;;13.82;12.35;;;10.70;99.90;;;;;;6129815;23;20188;-77
2022/10/27 05:25:20;;;;;;;17.13;14.05;;;10.60;99.90;;;;;;6129872;23;20241;-77
2022/10/27 05:27:47;;;;;;;15.50;13.45;;;10.60;99.90;;;;;;6124115;23;20214;-78
2022/10/27 05:30:14;;;;;;;15.45;13.52;;;10.60;99.90;;;;;;6109378;23;20233;-77
2022/10/27 05:32:41;;;;;;;17.02;13.65;;;10.50;99.90;;;;;;6134028;23;20191;-77
2022/10/27 05:35:09;;;;;;;13.95;12.55;;;10.50;99.90;;;;;;6120870;23;20613;-77
2022/10/27 05:37:36;;;;;;;15.77;14.18;;;10.40;99.90;;;;;;6091312;23;20203;-77
2022/10/27 05:40:05;;;;;;;20.35;13.88;;;10.40;99.90;;;;;;6098871;23;20527;-77
2022/10/27 05:42:34;;;;;;;19.30;15.48;;;10.30;99.90;;;;;;6099017;23;20199;-77
2022/10/27 05:45:01;;;;;;;17.30;14.43;;;10.30;99.90;;;;;;6118478;23;20249;-77
2022/10/27 05:47:28;;;;;;;15.70;14.10;;;10.30;99.90;;;;;;6109640;23;20236;-77
2022/10/27 05:49:55;;;;;;;19.15;13.80;;;10.30;99.90;;;;;;6117830;23;20216;-77
2022/10/27 05:52:22;;;;;;;16.90;14.80;;;10.30;99.90;;;;;;6117922;23;20664;-77
2022/10/27 05:54:49;;;;;;;14.20;12.80;;;10.30;99.90;;;;;;6132943;23;20899;-77
2022/10/27 05:57:17;;;;;;;16.42;13.75;;;10.30;99.90;;;;;;6104722;23;20188;-77
2022/10/27 05:59:46;;;;;;;16.02;14.48;;;10.30;99.90;;;;;;6088012;23;20199;-77
2022/10/27 06:02:13;;;;;;;15.38;13.68;;;10.20;99.90;;;;;;6070472;23;20266;-77
2022/10/27 06:04:40;;;;;;;19.15;14.80;;;10.30;99.90;;;;;;6084479;23;20294;-76
2022/10/27 06:07:07;;;;;;;18.50;16.50;;;10.30;99.90;;;;;;6128029;23;20215;-76
2022/10/27 06:09:34;;;;;;;17.05;15.18;;;10.30;99.90;;;;;;6113693;23;20279;-77
2022/10/27 06:12:01;;;;;;;19.92;17.83;;;10.40;99.90;;;;;;6119328;23;20195;-77
2022/10/27 06:14:29;;;;;;;17.00;15.20;;;10.40;99.90;;;;;;6089385;23;20187;-76
2022/10/27 06:16:58;;;;;;;18.67;16.77;;;10.50;99.90;;;;;;6119602;23;20187;-77
2022/10/27 06:19:25;;;;;;;18.80;16.90;;;10.50;99.90;;;;;;6106374;23;20711;-76
2022/10/27 06:21:53;;;;;;;17.58;15.85;;;10.60;99.90;;;;;;6115639;23;20241;-77
2022/10/27 06:24:20;;;;;;;20.08;17.67;;;10.60;99.90;;;;;;6127550;23;20259;-76
2022/10/27 06:26:47;;;;;;;22.02;19.77;;;10.70;99.90;;;;;;6111870;23;20192;-76
2022/10/27 06:29:14;;;;;;;20.83;16.60;;;10.70;99.90;;;;;;6100799;23;20470;-76
2022/10/27 06:31:42;;;;;;;23.50;19.42;;;10.80;99.90;;;;;;6055211;23;21185;-77
2022/10/27 06:34:10;;;;;;;18.00;16.13;;;10.90;99.90;;;;;;6106109;23;20267;-76
2022/10/27 06:36:37;;;;;;;21.67;18.08;;;11.00;99.90;;;;;;6120412;23;20206;-77
2022/10/27 06:39:05;;;;;;;20.25;18.15;;;11.00;99.90;;;;;;6112331;23;20309;-77
2022/10/27 06:41:32;;;;;;;18.63;16.33;;;11.10;99.90;;;;;;6079001;23;20545;-77
2022/10/27 06:43:59;;;;;;;19.65;15.35;;;11.10;99.90;;;;;;6109874;23;20269;-77
2022/10/27 06:46:26;;;;;;;17.10;15.40;;;11.20;99.90;;;;;;6100214;23;20223;-77
2022/10/27 06:48:53;;;;;;;19.20;16.90;;;11.30;99.90;;;;;;6111746;23;20266;-76
2022/10/27 06:51:22;;;;;;;15.48;13.88;;;11.40;99.90;;;;;;6118186;23;20198;-77
2022/10/27 06:53:50;;;;;;;17.08;15.27;;;11.40;99.90;;;;;;6111736;23;20569;-76
2022/10/27 06:56:18;;;;;;;17.75;15.65;;;11.50;99.90;;;;;;6105001;23;20265;-77
2022/10/27 06:58:47;;;;;;;14.73;13.27;;;11.60;99.90;;;;;;6106854;23;20198;-77
2022/10/27 07:01:15;;;;;;;13.82;12.00;;;11.70;99.90;;;;;;6118537;23;20424;-76
2022/10/27 07:03:42;;;;;;;13.00;11.80;;;11.80;99.90;;;;;;6113636;23;20711;-77
2022/10/27 07:06:09;;;;;;;11.82;10.60;;;11.80;99.90;;;;;;6113206;23;20391;-77
2022/10/27 07:08:39;;;;;;;10.98;9.88;;;12.10;99.90;;;;;;6091723;23;20247;-77
2022/10/27 07:11:08;;;;;;;10.50;9.20;;;12.40;99.90;;;;;;6118091;23;20196;-77
2022/10/27 07:13:35;;;;;;;9.00;8.10;;;12.70;99.90;;;;;;6105110;23;20446;-77
2022/10/27 07:16:02;;;;;;;10.20;8.93;;;13.10;99.90;;;;;;6110197;23;20468;-77
2022/10/27 07:18:32;;;;;;;8.87;7.97;;;13.40;99.90;;;;;;6121616;23;20460;-77
2022/10/27 07:21:00;;;;;;;9.37;7.93;;;13.70;99.90;;;;;;6120440;23;20507;-77
2022/10/27 07:23:27;;;;;;;13.23;8.03;;;13.70;99.90;;;;;;6106192;23;20968;-78
2022/10/27 07:25:56;;;;;;;8.60;6.80;;;13.80;99.90;;;;;;6108651;23;20441;-77
2022/10/27 07:28:23;;;;;;;8.57;6.90;;;13.90;99.90;;;;;;6103635;23;20560;-78
2022/10/27 07:30:54;;;;;;;7.07;6.50;;;14.00;99.90;;;;;;6121697;23;20940;-77
2022/10/27 07:33:22;;;;;;;8.03;6.60;;;14.20;99.90;;;;;;6117663;23;20851;-76
2022/10/27 07:35:50;;;;;;;7.60;6.90;;;14.30;99.90;;;;;;6096898;23;20431;-77
2022/10/27 07:38:18;;;;;;;8.57;6.43;;;14.50;99.90;;;;;;6118816;23;20430;-78
2022/10/27 07:40:45;;;;;;;7.47;6.67;;;14.60;99.90;;;;;;6109384;23;20447;-78
2022/10/27 07:43:14;;;;;;;7.50;6.70;;;14.70;99.90;;;;;;6117703;23;20434;-78
2022/10/27 07:45:42;;;;;;;7.20;5.70;;;14.90;99.90;;;;;;6113619;23;20442;-78
2022/10/27 07:48:14;;;;;;;8.13;6.13;;;15.00;99.90;;;;;;6115937;23;20540;-78
2022/10/27 07:50:42;;;;;;;8.53;6.20;;;15.10;99.90;;;;;;6116100;23;20520;-78
2022/10/27 07:53:10;;;;;;;6.30;5.80;;;15.30;99.90;;;;;;6115462;23;20893;-78
2022/10/27 07:55:38;;;;;;;7.93;5.53;;;15.70;99.90;;;;;;6118428;23;20445;-76
2022/10/27 07:58:07;;;;;;;7.03;6.00;;;15.90;99.90;;;;;;6104285;23;21223;-76
2022/10/27 08:00:37;;;;;;;6.23;5.53;;;16.10;99.90;;;;;;6114311;23;20545;-78
2022/10/27 08:03:06;;;;;;;6.97;5.70;;;16.40;99.90;;;;;;6113672;23;20433;-78
2022/10/27 08:05:36;;;;;;;6.23;5.63;;;16.80;99.90;;;;;;6095905;23;20531;-78
2022/10/27 08:08:05;;;;;;;7.13;5.30;;;17.10;99.90;;;;;;6081936;23;20449;-79
2022/10/27 08:10:34;;;;;;;5.10;4.70;;;17.30;99.90;;;;;;6090232;23;20469;-78
2022/10/27 08:13:03;;;;;;;7.13;5.33;;;17.50;99.90;;;;;;6114205;23;20451;-79
2022/10/27 08:15:31;;;;;;;6.27;5.20;;;17.80;99.90;;;;;;6112445;23;20521;-78
2022/10/27 08:18:01;;;;;;;6.73;4.90;;;18.00;99.90;;;;;;6108087;23;20461;-78
2022/10/27 08:20:31;;;;;;;5.57;5.03;;;18.20;99.90;;;;;;6114027;23;20452;-79
2022/10/27 08:22:58;;;;;;;7.60;4.57;;;18.40;99.90;;;;;;6113536;23;20438;-78
2022/10/27 08:25:26;;;;;;;7.23;4.57;;;18.40;99.90;;;;;;6110994;23;20906;-79
2022/10/27 08:27:54;;;;;;;5.47;4.77;;;18.50;99.90;;;;;;6116880;23;20498;-78
2022/10/27 08:30:23;;;;;;;6.13;4.90;;;18.40;99.90;;;;;;6118578;23;20437;-78
2022/10/27 08:32:50;;;;;;;6.13;5.00;;;18.50;99.90;;;;;;6097829;23;20421;-78
2022/10/27 08:35:19;;;;;;;5.20;4.70;;;18.60;99.90;;;;;;6086037;23;20531;-78
2022/10/27 08:37:46;;;;;;;7.47;5.20;;;18.60;99.90;;;;;;6101930;23;20434;-77
2022/10/27 08:40:13;;;;;;;5.67;4.50;;;18.80;99.90;;;;;;6094729;23;20490;-79
2022/10/27 08:42:52;;;;;;;8.57;5.07;;;19.10;99.90;;;;;;6118009;23;20514;-78
2022/10/27 08:45:25;;;;;;;6.77;4.50;;;19.20;99.90;;;;;;6121159;23;20491;-78
2022/10/27 08:47:54;;;;;;;8.10;5.47;;;19.30;99.90;;;;;;6139042;23;20444;-79
2022/10/27 08:50:26;;;;;;;5.70;4.53;;;19.50;99.90;;;;;;6118700;23;20459;-78
2022/10/27 08:52:58;;;;;;;6.23;4.50;;;19.60;99.90;;;;;;6126777;23;20505;-78
2022/10/27 08:55:29;;;;;;;7.87;4.60;;;19.60;99.90;;;;;;6103619;23;20461;-78
2022/10/27 08:58:04;;;;;;;5.17;4.20;;;19.00;99.90;;;;;;6108048;23;20438;-79
2022/10/27 09:00:38;;;;;;;7.60;4.80;;;18.80;99.90;;;;;;6120714;23;20500;-80
2022/10/27 09:03:19;;;;;;;6.77;4.80;;;18.80;99.90;;;;;;6122368;23;20942;-78
2022/10/27 09:05:59;;;;;;;8.50;5.00;;;18.80;99.90;;;;;;6095384;23;20500;-79
2022/10/27 09:08:34;;;;;;;5.60;4.03;;;19.10;99.90;;;;;;6074320;23;20471;-79
2022/10/27 09:11:16;;;;;;;6.20;4.07;;;19.40;99.90;;;;;;6049706;23;20436;-79
2022/10/27 09:13:59;;;;;;;4.73;4.13;;;19.80;99.90;;;;;;6074244;23;20518;-79
2022/10/27 09:16:34;;;;;;;7.77;4.77;;;19.90;99.90;;;;;;6076451;23;20434;-77
2022/10/27 09:19:07;;;;;;;4.77;4.00;;;20.00;99.90;;;;;;6077825;23;20559;-79
2022/10/27 09:21:38;;;;;;;7.30;4.47;;;20.10;99.90;;;;;;6089263;23;20429;-79
2022/10/27 09:24:12;;;;;;;6.77;4.60;;;20.00;99.90;;;;;;6088118;23;20939;-79
2022/10/27 09:26:43;;;;;;;6.40;4.00;;;20.00;99.90;;;;;;6086637;23;20906;-78
2022/10/27 09:29:18;;;;;;;6.37;4.30;;;20.20;99.90;;;;;;6062259;23;20487;-78
2022/10/27 09:31:49;;;;;;;6.00;3.90;;;20.40;99.90;;;;;;6079757;23;20529;-79
2022/10/27 09:34:20;;;;;;;8.30;4.33;;;20.20;99.90;;;;;;6092999;23;20787;-77
2022/10/27 09:36:51;;;;;;;7.43;3.57;;;20.40;99.90;;;;;;6091988;23;20437;-77
2022/10/27 09:39:19;;;;;;;4.60;3.87;;;20.60;99.90;;;;;;6085452;23;20431;-76
2022/10/27 09:41:46;;;;;;;6.00;4.40;;;20.90;99.90;;;;;;6066471;23;20422;-78
2022/10/27 09:44:18;;;;;;;7.53;4.70;;;21.00;99.90;;;;;;6097968;23;20439;-77
2022/10/27 09:46:50;;;;;;;5.67;4.03;;;20.90;99.90;;;;;;6066359;23;20509;-78
2022/10/27 09:49:18;;;;;;;6.63;4.00;;;20.70;99.90;;;;;;6091070;23;20524;-78
2022/10/27 09:51:52;;;;;;;6.00;4.47;;;20.50;99.90;;;;;;6059288;23;20512;-77
2022/10/27 09:54:31;;;;;;;6.47;4.53;;;20.50;99.90;;;;;;6086100;23;20860;-78
2022/10/27 09:57:07;;;;;;;7.30;4.90;;;20.90;99.90;;;;;;6071765;23;20434;-78
2022/10/27 09:59:36;;;;;;;7.40;4.43;;;20.90;99.90;;;;;;6078936;23;20548;-79
2022/10/27 10:02:06;;;;;;;9.07;4.83;;;20.60;99.90;;;;;;6081441;23;20441;-78
2022/10/27 10:04:36;;;;;;;4.73;4.20;;;20.60;99.90;;;;;;6088003;23;20591;-78
2022/10/27 10:13:22;;;;;;;6.17;4.50;;;20.30;99.90;;;;;;6102961;23;20503;-78
2022/10/27 10:16:08;;;;;;;7.60;4.20;;;20.80;99.90;;;;;;6115940;23;20511;-78
2022/10/27 10:18:37;;;;;;;6.37;5.03;;;21.40;99.90;;;;;;6115959;23;20906;-78
2022/10/27 10:21:07;;;;;;;5.53;4.37;;;22.00;99.90;;;;;;6119286;23;20444;-78
2022/10/27 10:23:36;;;;;;;5.10;3.90;;;22.10;99.90;;;;;;6123137;23;20506;-78
2022/10/27 10:26:14;;;;;;;5.20;3.80;;;22.40;99.90;;;;;;6092384;23;20432;-78
2022/10/27 10:28:44;;;;;;;6.30;3.90;;;22.60;99.90;;;;;;6055015;23;20535;-78
2022/10/27 10:31:14;;;;;;;5.43;3.70;;;22.80;99.90;;;;;;6132500;23;20438;-78
2022/10/27 10:33:46;;;;;;;10.83;3.80;;;23.10;99.90;;;;;;6112114;23;20547;-79
2022/10/27 10:36:25;;;;;;;5.97;3.60;;;23.40;99.90;;;;;;6121182;23;20478;-78
2022/10/27 10:38:55;;;;;;;6.80;4.13;;;23.40;99.90;;;;;;6118783;23;20436;-78
2022/10/27 10:41:23;;;;;;;8.13;3.40;;;23.60;99.90;;;;;;6113990;23;20443;-78
2022/10/27 10:46:52;;;;;;;9.53;4.10;;;23.20;99.90;;;;;;6217518;22;20656;-76
2022/10/27 10:49:23;;;;;;;5.90;3.30;;;23.70;99.90;;;;;;6211793;23;20516;-76
2022/10/27 10:51:54;;;;;;;5.20;3.27;;;23.60;99.90;;;;;;6214831;23;20460;-76
2022/10/27 10:54:25;;;;;;;3.43;2.93;;;23.60;99.90;;;;;;6218186;23;20465;-76
2022/10/27 10:56:54;;;;;;;5.37;3.33;;;23.80;99.90;;;;;;6197151;23;21029;-77
2022/10/27 10:59:25;;;;;;;5.53;3.20;;;23.80;99.90;;;;;;6210922;23;20515;-76
2022/10/27 11:02:02;;;;;;;7.50;3.30;;;24.00;99.90;;;;;;6198367;23;20953;-77
2022/10/27 11:04:34;;;;;;;6.57;3.73;;;24.00;99.90;;;;;;6219733;23;20505;-76
2022/10/27 11:07:04;;;;;;;4.47;2.97;;;23.50;99.90;;;;;;6214728;23;20454;-76
2022/10/27 11:09:38;;;;;;;4.33;3.10;;;22.80;99.90;;;;;;6206675;23;20495;-76
2022/10/27 11:12:16;;;;;;;5.80;3.40;;;22.50;99.90;;;;;;6202574;23;20434;-76
2022/10/27 11:14:44;;;;;;;5.70;2.87;;;22.80;99.90;;;;;;6205063;23;20437;-76
2022/10/27 11:17:13;;;;;;;5.60;2.83;;;23.40;99.90;;;;;;6214061;23;20430;-77
2022/10/27 11:19:43;;;;;;;5.63;3.13;;;23.80;99.90;;;;;;6213846;23;20944;-77
2022/10/27 11:22:16;;;;;;;4.60;2.93;;;24.40;99.90;;;;;;6178119;23;20462;-77
2022/10/27 11:24:51;;;;;;;6.17;3.73;;;25.00;99.90;;;;;;6199031;23;20441;-77
2022/10/27 11:27:24;;;;;;;3.43;3.10;;;25.10;99.90;;;;;;6189507;23;20865;-76
2022/10/27 11:29:59;;;;;;;5.20;3.10;;;25.00;99.90;;;;;;6208683;23;20456;-77
2022/10/27 11:32:34;;;;;;;7.17;3.57;;;25.30;99.90;;;;;;6171387;23;20517;-77
2022/10/27 11:35:11;;;;;;;5.73;3.00;;;25.10;99.90;;;;;;6204860;23;20433;-77
2022/10/27 11:37:45;;;;;;;5.60;3.40;;;24.80;99.90;;;;;;6205068;23;20480;-77
2022/10/27 11:40:18;;;;;;;6.43;3.07;;;24.00;99.90;;;;;;6199062;23;20464;-77
2022/10/27 11:42:54;;;;;;;4.90;3.10;;;24.20;99.90;;;;;;6198093;23;20453;-77
2022/10/27 11:45:28;;;;;;;6.03;3.13;;;24.20;99.90;;;;;;6205565;23;20494;-77
2022/10/27 11:48:04;;;;;;;4.30;2.70;;;24.60;99.90;;;;;;6193195;23;20980;-77
2022/10/27 11:50:37;;;;;;;5.37;3.07;;;25.00;99.90;;;;;;6178185;23;20476;-77
2022/10/27 11:53:06;;;;;;;3.50;2.60;;;25.20;99.90;;;;;;6209735;23;20790;-77
2022/10/27 11:55:45;;;;;;;6.83;3.63;;;25.20;99.90;;;;;;6189559;23;20430;-77
2022/10/27 11:58:21;;;;;;;3.87;2.60;;;25.20;99.90;;;;;;6198949;23;20884;-77
2022/10/27 12:00:55;;;;;;;6.20;3.13;;;25.60;99.90;;;;;;6170813;23;20449;-77
2022/10/27 12:03:47;;;;;;;5.30;3.03;;;26.00;99.90;;;;;;6188187;23;20518;-77
2022/10/27 12:06:21;;;;;;;4.73;2.73;;;26.30;99.90;;;;;;6177633;23;20519;-77
2022/10/27 12:08:55;;;;;;;3.90;2.67;;;26.40;99.90;;;;;;6196375;23;20477;-77
2022/10/27 12:11:32;;;;;;;4.90;3.10;;;26.40;99.90;;;;;;6205038;23;20427;-77
2022/10/27 12:14:07;;;;;;;5.33;2.57;;;26.50;99.90;;;;;;6203055;23;20434;-77
2022/10/27 12:16:42;;;;;;;5.63;2.77;;;26.60;99.90;;;;;;6181092;23;20434;-77
2022/10/27 12:19:19;;;;;;;4.47;2.97;;;26.60;99.90;;;;;;6189875;23;20434;-77
2022/10/27 12:21:49;;;;;;;8.57;2.60;;;26.50;99.90;;;;;;6190269;23;21071;-77
2022/10/27 12:24:21;;;;;;;3.33;2.50;;;25.90;99.90;;;;;;6207732;23;20434;-76
2022/10/27 12:26:53;;;;;;;3.00;2.20;;;25.80;99.90;;;;;;6183628;23;20499;-77
2022/10/27 12:29:24;;;;;;;5.00;2.77;;;26.10;99.90;;;;;;6183678;23;20509;-77
2022/10/27 12:31:55;;;;;;;5.23;2.83;;;26.40;99.90;;;;;;6180364;23;20412;-76
2022/10/27 12:34:29;;;;;;;5.40;2.83;;;26.00;99.90;;;;;;6184382;23;20436;-76
2022/10/27 12:37:02;;;;;;;7.17;2.70;;;25.80;99.90;;;;;;6202432;23;20843;-77
2022/10/27 12:39:38;;;;;;;7.20;2.90;;;25.90;99.90;;;;;;6176073;23;20555;-76
2022/10/27 12:42:13;;;;;;;5.03;2.50;;;26.20;99.90;;;;;;6210194;23;21026;-76
2022/10/27 12:44:52;;;;;;;3.30;2.63;;;26.10;99.90;;;;;;6173895;23;20494;-76
2022/10/27 12:47:33;;;;;;;6.53;2.73;;;26.20;99.90;;;;;;6158390;23;20443;-76
2022/10/27 12:50:15;;;;;;;4.53;2.47;;;26.30;99.90;;;;;;6193999;23;20445;-77
2022/10/27 12:52:50;;;;;;;4.97;2.50;;;26.30;99.90;;;;;;6208924;23;20565;-77
2022/10/27 12:55:31;;;;;;;7.10;2.30;;;26.30;99.90;;;;;;6208715;23;20973;-77
2022/10/27 12:58:03;;;;;;;4.30;3.00;;;26.30;99.90;;;;;;6168916;23;20433;-76
2022/10/27 13:00:40;;;;;;;4.17;2.77;;;26.20;99.90;;;;;;6196588;23;20478;-76